VYML weather

Meiktila Air Base
Meiktila, Mandalay Division, Burma

Public forecast

Using degrees Celsius for public forecast. Weather courtesy of forecast.io.

Closest aviation weather report (METAR) to Meiktila Air Base

Closest report is Mandalay International Airport, 49.2 nm (91.1 km) N. Retrieved 2020/03/31 06:30 UTC (51 minutes ago):

VYMD 310630Z 24010KT 7000 NSC 38/16 Q1007 NOSIG

Closest aviation forecast (TAF) to Meiktila Air Base

Closest forecast is Mandalay International Airport, 49.2 nm (91.1 km) N. Retrieved 2020/03/31 06:00 UTC (1 hour ago):

TAF VYMD 310500Z 3106/0106 22007KT 7000 FEW020 TEMPO 3106/3112 17010G18KT 7000 SCT020